sensor_id;sensor_type;location;lat;lon;timestamp;pressure;altitude;pressure_sealevel;temperature;humidity
20628;BME280;10473;42.734;24.258;2022-11-24T00:01:03;90810.75;;;6.59;74.04
20628;BME280;10473;42.734;24.258;2022-11-24T00:03:35;90814.56;;;6.65;72.57
20628;BME280;10473;42.734;24.258;2022-11-24T00:06:04;90815.97;;;6.52;73.46
20628;BME280;10473;42.734;24.258;2022-11-24T00:08:34;90813.75;;;6.54;74.17
20628;BME280;10473;42.734;24.258;2022-11-24T00:11:04;90822.81;;;6.63;72.51
20628;BME280;10473;42.734;24.258;2022-11-24T00:13:32;90817.84;;;6.48;73.00
20628;BME280;10473;42.734;24.258;2022-11-24T00:16:08;90825.34;;;6.46;73.92
20628;BME280;10473;42.734;24.258;2022-11-24T00:18:37;90816.31;;;6.47;73.65
20628;BME280;10473;42.734;24.258;2022-11-24T00:21:05;90824.25;;;6.50;73.55
20628;BME280;10473;42.734;24.258;2022-11-24T00:23:35;90834.66;;;6.36;73.72
20628;BME280;10473;42.734;24.258;2022-11-24T00:26:05;90829.03;;;6.38;74.50
20628;BME280;10473;42.734;24.258;2022-11-24T00:28:34;90817.75;;;6.37;74.11
20628;BME280;10473;42.734;24.258;2022-11-24T00:31:03;90825.66;;;6.37;74.21
20628;BME280;10473;42.734;24.258;2022-11-24T00:33:31;90833.91;;;6.39;74.62
20628;BME280;10473;42.734;24.258;2022-11-24T00:35:59;90821.13;;;6.38;74.41
20628;BME280;10473;42.734;24.258;2022-11-24T00:38:27;90827.75;;;6.18;74.63
20628;BME280;10473;42.734;24.258;2022-11-24T00:40:56;90839.38;;;6.17;75.39
20628;BME280;10473;42.734;24.258;2022-11-24T00:43:24;90839.41;;;6.20;75.12
20628;BME280;10473;42.734;24.258;2022-11-24T00:45:52;90833.75;;;6.15;74.69
20628;BME280;10473;42.734;24.258;2022-11-24T00:48:21;90838.25;;;6.18;74.40
20628;BME280;10473;42.734;24.258;2022-11-24T00:50:55;90843.59;;;6.25;73.94
20628;BME280;10473;42.734;24.258;2022-11-24T00:53:23;90836.06;;;6.23;74.69
20628;BME280;10473;42.734;24.258;2022-11-24T00:55:51;90839.78;;;6.19;75.14
20628;BME280;10473;42.734;24.258;2022-11-24T00:58:21;90839.81;;;6.22;74.04
20628;BME280;10473;42.734;24.258;2022-11-24T01:00:50;90841.34;;;6.27;73.38
20628;BME280;10473;42.734;24.258;2022-11-24T01:03:19;90850.50;;;6.00;74.92
20628;BME280;10473;42.734;24.258;2022-11-24T01:05:47;90849.53;;;6.15;74.15
20628;BME280;10473;42.734;24.258;2022-11-24T01:08:15;90850.25;;;6.15;73.53
20628;BME280;10473;42.734;24.258;2022-11-24T01:10:43;90840.47;;;6.09;74.21
20628;BME280;10473;42.734;24.258;2022-11-24T01:13:11;90850.22;;;6.12;74.39
20628;BME280;10473;42.734;24.258;2022-11-24T01:15:40;90847.59;;;6.12;74.44
20628;BME280;10473;42.734;24.258;2022-11-24T01:18:08;90851.34;;;6.11;73.68
20628;BME280;10473;42.734;24.258;2022-11-24T01:20:36;90838.88;;;6.01;74.78
20628;BME280;10473;42.734;24.258;2022-11-24T01:23:04;90836.72;;;6.13;74.52
20628;BME280;10473;42.734;24.258;2022-11-24T01:25:32;90850.31;;;6.19;73.72
20628;BME280;10473;42.734;24.258;2022-11-24T01:28:00;90845.94;;;5.93;75.19
20628;BME280;10473;42.734;24.258;2022-11-24T01:30:28;90850.56;;;6.07;75.17
20628;BME280;10473;42.734;24.258;2022-11-24T01:32:57;90848.34;;;6.09;73.89
20628;BME280;10473;42.734;24.258;2022-11-24T01:35:25;90852.38;;;5.63;76.14
20628;BME280;10473;42.734;24.258;2022-11-24T01:37:53;90848.09;;;5.84;75.39
20628;BME280;10473;42.734;24.258;2022-11-24T01:40:20;90844.78;;;5.91;75.49
20628;BME280;10473;42.734;24.258;2022-11-24T01:42:50;90834.28;;;5.91;74.69
20628;BME280;10473;42.734;24.258;2022-11-24T01:45:32;90835.78;;;5.92;74.87
20628;BME280;10473;42.734;24.258;2022-11-24T01:48:04;90838.41;;;5.92;75.33
20628;BME280;10473;42.734;24.258;2022-11-24T01:50:34;90841.34;;;5.83;75.09
20628;BME280;10473;42.734;24.258;2022-11-24T01:53:03;90848.09;;;5.81;75.79
20628;BME280;10473;42.734;24.258;2022-11-24T01:55:35;90848.47;;;5.83;75.20
20628;BME280;10473;42.734;24.258;2022-11-24T01:58:05;90858.03;;;5.65;75.26
20628;BME280;10473;42.734;24.258;2022-11-24T02:00:35;90849.69;;;5.56;75.88
20628;BME280;10473;42.734;24.258;2022-11-24T02:03:06;90859.59;;;5.73;75.06
20628;BME280;10473;42.734;24.258;2022-11-24T02:05:39;90852.50;;;5.77;75.11
20628;BME280;10473;42.734;24.258;2022-11-24T02:08:13;90855.72;;;5.60;75.51
20628;BME280;10473;42.734;24.258;2022-11-24T02:10:44;90842.31;;;5.72;74.90
20628;BME280;10473;42.734;24.258;2022-11-24T02:13:13;90854.34;;;5.73;75.22
20628;BME280;10473;42.734;24.258;2022-11-24T02:15:41;90840.63;;;5.50;75.15
20628;BME280;10473;42.734;24.258;2022-11-24T02:18:11;90844.81;;;5.58;75.28
20628;BME280;10473;42.734;24.258;2022-11-24T02:20:38;90852.38;;;5.63;76.02
20628;BME280;10473;42.734;24.258;2022-11-24T02:23:12;90851.50;;;5.52;75.68
20628;BME280;10473;42.734;24.258;2022-11-24T02:25:49;90853.44;;;5.55;75.00
20628;BME280;10473;42.734;24.258;2022-11-24T02:28:22;90835.31;;;5.46;75.35
20628;BME280;10473;42.734;24.258;2022-11-24T02:30:53;90854.06;;;5.45;76.02
20628;BME280;10473;42.734;24.258;2022-11-24T02:33:21;90856.75;;;5.52;75.58
20628;BME280;10473;42.734;24.258;2022-11-24T02:35:50;90844.34;;;5.49;75.90
20628;BME280;10473;42.734;24.258;2022-11-24T02:38:27;90845.28;;;5.34;76.06
20628;BME280;10473;42.734;24.258;2022-11-24T02:40:55;90860.91;;;5.53;75.92
20628;BME280;10473;42.734;24.258;2022-11-24T02:43:28;90857.94;;;5.58;75.90
20628;BME280;10473;42.734;24.258;2022-11-24T02:45:57;90863.19;;;5.58;76.65
20628;BME280;10473;42.734;24.258;2022-11-24T02:48:25;90857.63;;;5.63;76.55
20628;BME280;10473;42.734;24.258;2022-11-24T02:50:53;90864.66;;;5.55;75.23
20628;BME280;10473;42.734;24.258;2022-11-24T02:53:21;90852.19;;;5.45;77.25
20628;BME280;10473;42.734;24.258;2022-11-24T02:55:49;90860.91;;;5.53;76.88
20628;BME280;10473;42.734;24.258;2022-11-24T02:58:17;90860.50;;;5.51;76.80
20628;BME280;10473;42.734;24.258;2022-11-24T03:00:46;90857.00;;;5.40;76.56
20628;BME280;10473;42.734;24.258;2022-11-24T03:03:14;90862.34;;;5.47;76.87
20628;BME280;10473;42.734;24.258;2022-11-24T03:05:42;90860.84;;;5.49;76.83
20628;BME280;10473;42.734;24.258;2022-11-24T03:08:09;90863.84;;;5.48;77.22
20628;BME280;10473;42.734;24.258;2022-11-24T03:10:38;90865.09;;;5.57;76.62
20628;BME280;10473;42.734;24.258;2022-11-24T03:13:06;90854.09;;;5.48;77.49
20628;BME280;10473;42.734;24.258;2022-11-24T03:15:34;90862.41;;;5.54;76.27
20628;BME280;10473;42.734;24.258;2022-11-24T03:18:04;90863.19;;;5.58;77.06
20628;BME280;10473;42.734;24.258;2022-11-24T03:20:32;90867.56;;;5.43;77.36
20628;BME280;10473;42.734;24.258;2022-11-24T03:23:00;90868.41;;;5.54;76.70
20628;BME280;10473;42.734;24.258;2022-11-24T03:25:27;90876.69;;;5.56;77.34
20628;BME280;10473;42.734;24.258;2022-11-24T03:27:56;90870.59;;;5.49;76.70
20628;BME280;10473;42.734;24.258;2022-11-24T03:30:24;90877.09;;;5.58;76.76
20628;BME280;10473;42.734;24.258;2022-11-24T03:32:52;90875.16;;;5.52;77.44
20628;BME280;10473;42.734;24.258;2022-11-24T03:35:22;90874.38;;;5.51;77.93
20628;BME280;10473;42.734;24.258;2022-11-24T03:37:51;90869.97;;;5.59;76.91
20628;BME280;10473;42.734;24.258;2022-11-24T03:40:19;90866.25;;;5.60;76.48
20628;BME280;10473;42.734;24.258;2022-11-24T03:42:46;90865.53;;;5.66;75.77
20628;BME280;10473;42.734;24.258;2022-11-24T03:45:14;90870.78;;;5.66;76.26
20628;BME280;10473;42.734;24.258;2022-11-24T03:47:42;90866.25;;;5.60;76.82
20628;BME280;10473;42.734;24.258;2022-11-24T03:50:10;90870.75;;;5.63;76.44
20628;BME280;10473;42.734;24.258;2022-11-24T03:52:39;90879.69;;;5.55;77.09
20628;BME280;10473;42.734;24.258;2022-11-24T03:55:07;90868.84;;;5.27;78.30
20628;BME280;10473;42.734;24.258;2022-11-24T03:57:35;90872.13;;;5.50;77.11
20628;BME280;10473;42.734;24.258;2022-11-24T04:00:04;90882.31;;;5.55;77.62
20628;BME280;10473;42.734;24.258;2022-11-24T04:02:32;90881.16;;;5.52;76.50
20628;BME280;10473;42.734;24.258;2022-11-24T04:05:00;90883.47;;;5.57;76.83
20628;BME280;10473;42.734;24.258;2022-11-24T04:07:28;90888.63;;;5.50;76.79
20628;BME280;10473;42.734;24.258;2022-11-24T04:09:57;90895.47;;;5.55;76.16
20628;BME280;10473;42.734;24.258;2022-11-24T04:12:25;90894.38;;;5.59;76.07
20628;BME280;10473;42.734;24.258;2022-11-24T04:15:10;90897.16;;;5.40;76.60
20628;BME280;10473;42.734;24.258;2022-11-24T04:17:38;90890.19;;;5.55;76.31
20628;BME280;10473;42.734;24.258;2022-11-24T04:20:07;90897.63;;;5.49;76.23
20628;BME280;10473;42.734;24.258;2022-11-24T04:22:35;90883.66;;;5.42;77.28
20628;BME280;10473;42.734;24.258;2022-11-24T04:25:05;90890.94;;;5.55;76.83
20628;BME280;10473;42.734;24.258;2022-11-24T04:27:36;90897.66;;;5.53;76.38
20628;BME280;10473;42.734;24.258;2022-11-24T04:30:05;90892.03;;;5.51;76.88
20628;BME280;10473;42.734;24.258;2022-11-24T04:32:34;90894.66;;;5.51;76.81
20628;BME280;10473;42.734;24.258;2022-11-24T04:35:02;90893.47;;;5.45;76.79
20628;BME280;10473;42.734;24.258;2022-11-24T04:37:29;90896.97;;;5.56;77.54
20628;BME280;10473;42.734;24.258;2022-11-24T04:39:57;90893.91;;;5.54;78.06
20628;BME280;10473;42.734;24.258;2022-11-24T04:42:26;90892.44;;;5.56;77.99
20628;BME280;10473;42.734;24.258;2022-11-24T04:44:54;90894.41;;;5.63;76.66
20628;BME280;10473;42.734;24.258;2022-11-24T04:47:23;90891.78;;;5.63;77.30
20628;BME280;10473;42.734;24.258;2022-11-24T04:49:52;90890.97;;;5.59;77.43
20628;BME280;10473;42.734;24.258;2022-11-24T04:52:21;90897.84;;;5.67;77.12
20628;BME280;10473;42.734;24.258;2022-11-24T04:54:49;90901.59;;;5.69;76.43
20628;BME280;10473;42.734;24.258;2022-11-24T04:57:18;90914.38;;;5.67;77.68
20628;BME280;10473;42.734;24.258;2022-11-24T04:59:47;90904.59;;;5.68;76.86
20628;BME280;10473;42.734;24.258;2022-11-24T05:02:16;90909.13;;;5.71;77.24
20628;BME280;10473;42.734;24.258;2022-11-24T05:04:44;90909.94;;;5.75;76.33
20628;BME280;10473;42.734;24.258;2022-11-24T05:07:12;90910.25;;;5.70;76.47
20628;BME280;10473;42.734;24.258;2022-11-24T05:09:40;90909.94;;;5.75;76.64
20628;BME280;10473;42.734;24.258;2022-11-24T05:12:21;90900.94;;;5.76;75.87
20628;BME280;10473;42.734;24.258;2022-11-24T05:14:51;90908.03;;;5.72;75.81
20628;BME280;10473;42.734;24.258;2022-11-24T05:17:18;90913.13;;;5.58;76.18
20628;BME280;10473;42.734;24.258;2022-11-24T05:19:46;90914.16;;;5.50;76.30
20628;BME280;10473;42.734;24.258;2022-11-24T05:22:14;90910.81;;;5.53;78.01
20628;BME280;10473;42.734;24.258;2022-11-24T05:24:42;90916.91;;;5.60;77.78
20628;BME280;10473;42.734;24.258;2022-11-24T05:27:10;90920.13;;;5.47;77.06
20628;BME280;10473;42.734;24.258;2022-11-24T05:29:37;90920.19;;;5.54;77.04
20628;BME280;10473;42.734;24.258;2022-11-24T05:32:06;90923.31;;;5.63;76.13
20628;BME280;10473;42.734;24.258;2022-11-24T05:34:34;90909.63;;;5.47;76.30
20628;BME280;10473;42.734;24.258;2022-11-24T05:37:02;90923.97;;;5.56;76.94
20628;BME280;10473;42.734;24.258;2022-11-24T05:39:30;90924.75;;;5.57;75.90
20628;BME280;10473;42.734;24.258;2022-11-24T05:42:00;90925.41;;;5.50;76.87
20628;BME280;10473;42.734;24.258;2022-11-24T05:44:48;90925.19;;;5.62;75.73
20628;BME280;10473;42.734;24.258;2022-11-24T05:47:18;90933.09;;;5.66;76.96
20628;BME280;10473;42.734;24.258;2022-11-24T05:49:46;90936.97;;;5.75;76.89
20628;BME280;10473;42.734;24.258;2022-11-24T05:52:14;90938.25;;;5.88;76.71
20628;BME280;10473;42.734;24.258;2022-11-24T05:54:41;90943.50;;;5.85;76.71
20628;BME280;10473;42.734;24.258;2022-11-24T05:57:09;90953.69;;;5.90;76.81
20628;BME280;10473;42.734;24.258;2022-11-24T05:59:38;90951.25;;;5.78;76.72
20628;BME280;10473;42.734;24.258;2022-11-24T06:02:06;90957.44;;;5.89;77.40
20628;BME280;10473;42.734;24.258;2022-11-24T06:04:35;90955.84;;;6.17;76.28
20628;BME280;10473;42.734;24.258;2022-11-24T06:07:05;90953.69;;;6.26;77.34
20628;BME280;10473;42.734;24.258;2022-11-24T06:09:35;90966.19;;;6.36;76.49
20628;BME280;10473;42.734;24.258;2022-11-24T06:12:03;90967.09;;;6.54;76.78
20628;BME280;10473;42.734;24.258;2022-11-24T06:14:31;90953.13;;;6.94;76.36
20628;BME280;10473;42.734;24.258;2022-11-24T06:16:59;90956.00;;;7.29;74.83
20628;BME280;10473;42.734;24.258;2022-11-24T06:19:26;90951.34;;;7.80;75.08
20628;BME280;10473;42.734;24.258;2022-11-24T06:21:55;90959.88;;;8.34;73.43
20628;BME280;10473;42.734;24.258;2022-11-24T06:24:23;90970.50;;;8.87;70.76
20628;BME280;10473;42.734;24.258;2022-11-24T06:26:51;90975.75;;;9.39;68.13
20628;BME280;10473;42.734;24.258;2022-11-24T06:29:19;90979.81;;;9.89;67.22
20628;BME280;10473;42.734;24.258;2022-11-24T06:31:46;90998.91;;;10.53;64.38
20628;BME280;10473;42.734;24.258;2022-11-24T06:34:14;90981.78;;;10.68;63.37
20628;BME280;10473;42.734;24.258;2022-11-24T06:36:42;91000.47;;;11.56;61.75
20628;BME280;10473;42.734;24.258;2022-11-24T06:39:11;91006.31;;;11.81;60.34
20628;BME280;10473;42.734;24.258;2022-11-24T06:41:39;90993.84;;;12.15;60.33
20628;BME280;10473;42.734;24.258;2022-11-24T06:44:06;91000.72;;;12.42;59.21
20628;BME280;10473;42.734;24.258;2022-11-24T06:46:35;91000.16;;;13.18;57.29
20628;BME280;10473;42.734;24.258;2022-11-24T06:49:03;91001.03;;;13.57;55.56
20628;BME280;10473;42.734;24.258;2022-11-24T06:51:31;91006.53;;;13.93;54.70
20628;BME280;10473;42.734;24.258;2022-11-24T06:53:58;91009.06;;;14.42;53.52
20628;BME280;10473;42.734;24.258;2022-11-24T06:56:28;91012.94;;;14.96;52.60
20628;BME280;10473;42.734;24.258;2022-11-24T06:58:56;91015.13;;;15.01;51.57
20628;BME280;10473;42.734;24.258;2022-11-24T07:01:25;91020.34;;;15.44;50.51
20628;BME280;10473;42.734;24.258;2022-11-24T07:03:53;91021.00;;;15.96;49.40
20628;BME280;10473;42.734;24.258;2022-11-24T07:06:23;91013.94;;;15.73;48.78
20628;BME280;10473;42.734;24.258;2022-11-24T07:08:51;91023.34;;;16.38;48.29
20628;BME280;10473;42.734;24.258;2022-11-24T07:11:21;91016.03;;;16.42;48.06
20628;BME280;10473;42.734;24.258;2022-11-24T07:13:51;91023.59;;;16.60;46.93
20628;BME280;10473;42.734;24.258;2022-11-24T07:16:20;91004.03;;;17.29;45.78
20628;BME280;10473;42.734;24.258;2022-11-24T07:18:49;91003.97;;;17.45;45.56
20628;BME280;10473;42.734;24.258;2022-11-24T07:21:19;91013.69;;;17.89;44.74
20628;BME280;10473;42.734;24.258;2022-11-24T07:23:47;91025.84;;;18.40;43.96
20628;BME280;10473;42.734;24.258;2022-11-24T07:26:15;91008.91;;;18.64;42.15
20628;BME280;10473;42.734;24.258;2022-11-24T07:28:43;91015.19;;;18.49;42.53
20628;BME280;10473;42.734;24.258;2022-11-24T07:31:14;91020.78;;;18.76;42.00
20628;BME280;10473;42.734;24.258;2022-11-24T07:33:47;91027.00;;;18.94;41.21
20628;BME280;10473;42.734;24.258;2022-11-24T07:36:16;91025.47;;;19.58;41.06
20628;BME280;10473;42.734;24.258;2022-11-24T07:38:43;91032.06;;;20.05;39.61
20628;BME280;10473;42.734;24.258;2022-11-24T07:41:12;91037.81;;;20.16;39.02
20628;BME280;10473;42.734;24.258;2022-11-24T07:43:40;91036.19;;;19.88;39.69
20628;BME280;10473;42.734;24.258;2022-11-24T07:46:12;91043.69;;;20.42;39.89
20628;BME280;10473;42.734;24.258;2022-11-24T12:12:26;91123.41;;;7.70;78.15
20628;BME280;10473;42.734;24.258;2022-11-24T12:15:04;91132.88;;;7.71;77.51
20628;BME280;10473;42.734;24.258;2022-11-24T12:17:41;91142.16;;;7.58;76.78
20628;BME280;10473;42.734;24.258;2022-11-24T12:20:22;91141.84;;;7.63;77.12
20628;BME280;10473;42.734;24.258;2022-11-24T12:23:01;91136.50;;;7.56;77.20
20628;BME280;10473;42.734;24.258;2022-11-24T12:25:40;91133.44;;;7.47;76.93
20628;BME280;10473;42.734;24.258;2022-11-24T12:28:21;91143.19;;;7.46;77.04
20628;BME280;10473;42.734;24.258;2022-11-24T12:31:03;91119.78;;;7.34;76.51
20628;BME280;10473;42.734;24.258;2022-11-24T12:34:18;91134.94;;;7.48;76.51
20628;BME280;10473;42.734;24.258;2022-11-24T12:37:00;91138.72;;;7.50;75.72
20628;BME280;10473;42.734;24.258;2022-11-24T12:39:33;91135.66;;;7.45;76.33
20628;BME280;10473;42.734;24.258;2022-11-24T12:42:12;91143.66;;;7.55;75.92
20628;BME280;10473;42.734;24.258;2022-11-24T12:45:00;91142.06;;;7.47;75.54
20628;BME280;10473;42.734;24.258;2022-11-24T12:47:37;91141.34;;;7.47;75.68
20628;BME280;10473;42.734;24.258;2022-11-24T12:50:09;91146.66;;;7.54;74.91
20628;BME280;10473;42.734;24.258;2022-11-24T12:52:43;91150.78;;;7.55;74.70
20628;BME280;10473;42.734;24.258;2022-11-24T12:55:16;91144.72;;;7.51;74.64
20628;BME280;10473;42.734;24.258;2022-11-24T12:57:52;91145.84;;;7.50;74.67
20628;BME280;10473;42.734;24.258;2022-11-24T13:00:29;91153.72;;;7.43;74.68
20628;BME280;10473;42.734;24.258;2022-11-24T13:03:12;91142.34;;;7.35;74.34
20628;BME280;10473;42.734;24.258;2022-11-24T13:05:50;91149.16;;;7.40;74.77
20628;BME280;10473;42.734;24.258;2022-11-24T13:08:20;91158.13;;;7.32;75.40
20628;BME280;10473;42.734;24.258;2022-11-24T13:10:48;91148.97;;;7.19;74.33
20628;BME280;10473;42.734;24.258;2022-11-24T13:13:16;91167.03;;;7.17;73.33
20628;BME280;10473;42.734;24.258;2022-11-24T13:16:18;91161.63;;;7.06;72.73
20628;BME280;10473;42.734;24.258;2022-11-24T13:18:52;91172.94;;;7.07;72.67
20628;BME280;10473;42.734;24.258;2022-11-24T13:21:45;91171.03;;;7.04;72.35
20628;BME280;10473;42.734;24.258;2022-11-24T13:24:24;91155.75;;;6.83;73.10
20628;BME280;10473;42.734;24.258;2022-11-24T13:26:54;91171.22;;;6.88;73.81
20628;BME280;10473;42.734;24.258;2022-11-24T13:29:42;91160.66;;;6.85;73.67
20628;BME280;10473;42.734;24.258;2022-11-24T13:35:19;91154.03;;;6.98;73.69
20628;BME280;10473;42.734;24.258;2022-11-24T13:37:49;91160.84;;;7.02;73.87
20628;BME280;10473;42.734;24.258;2022-11-24T13:40:37;91167.63;;;7.03;73.84
20628;BME280;10473;42.734;24.258;2022-11-24T13:43:20;91168.78;;;7.06;74.17
20628;BME280;10473;42.734;24.258;2022-11-24T13:45:52;91151.81;;;7.03;73.68
20628;BME280;10473;42.734;24.258;2022-11-24T13:48:51;91174.72;;;7.36;72.79
20628;BME280;10473;42.734;24.258;2022-11-24T13:51:24;91174.38;;;7.41;72.85
20628;BME280;10473;42.734;24.258;2022-11-24T13:53:54;91177.00;;;7.41;71.71
20628;BME280;10473;42.734;24.258;2022-11-24T13:56:28;91181.59;;;7.47;71.50
20628;BME280;10473;42.734;24.258;2022-11-24T13:58:59;91171.38;;;7.42;70.53
20628;BME280;10473;42.734;24.258;2022-11-24T14:01:29;91181.53;;;7.40;70.15
20628;BME280;10473;42.734;24.258;2022-11-24T14:04:02;91179.88;;;7.22;70.31
20628;BME280;10473;42.734;24.258;2022-11-24T14:06:35;91172.34;;;7.24;70.84
20628;BME280;10473;42.734;24.258;2022-11-24T14:09:18;91182.00;;;7.09;69.65
20628;BME280;10473;42.734;24.258;2022-11-24T14:11:57;91187.22;;;7.06;71.14
20628;BME280;10473;42.734;24.258;2022-11-24T14:14:26;91181.03;;;6.91;69.45
20628;BME280;10473;42.734;24.258;2022-11-24T14:17:14;91189.28;;;6.90;70.26
20628;BME280;10473;42.734;24.258;2022-11-24T14:19:43;91192.31;;;6.92;70.76
20628;BME280;10473;42.734;24.258;2022-11-24T14:22:18;91192.56;;;6.80;69.55
20628;BME280;10473;42.734;24.258;2022-11-24T14:24:51;91190.56;;;6.70;70.03
20628;BME280;10473;42.734;24.258;2022-11-24T14:27:26;91199.09;;;6.60;69.67
20628;BME280;10473;42.734;24.258;2022-11-24T14:29:56;91212.88;;;6.50;69.68
20628;BME280;10473;42.734;24.258;2022-11-24T14:32:24;91206.31;;;6.37;70.20
20628;BME280;10473;42.734;24.258;2022-11-24T14:34:52;91200.22;;;6.33;70.34
20628;BME280;10473;42.734;24.258;2022-11-24T14:37:22;91205.06;;;6.27;70.13
20628;BME280;10473;42.734;24.258;2022-11-24T14:39:50;91199.03;;;6.27;69.56
20628;BME280;10473;42.734;24.258;2022-11-24T14:42:19;91205.88;;;6.31;70.34
20628;BME280;10473;42.734;24.258;2022-11-24T14:44:50;91200.91;;;6.26;69.71
20628;BME280;10473;42.734;24.258;2022-11-24T14:47:24;91208.13;;;6.33;69.63
20628;BME280;10473;42.734;24.258;2022-11-24T14:49:52;91204.28;;;6.27;70.05
20628;BME280;10473;42.734;24.258;2022-11-24T14:52:22;91198.53;;;6.18;69.25
20628;BME280;10473;42.734;24.258;2022-11-24T14:54:53;91207.22;;;6.22;69.67
20628;BME280;10473;42.734;24.258;2022-11-24T14:57:26;91201.09;;;6.14;70.10
20628;BME280;10473;42.734;24.258;2022-11-24T15:00:16;91208.72;;;6.23;69.81
20628;BME280;10473;42.734;24.258;2022-11-24T15:02:46;91194.38;;;6.17;70.10
20628;BME280;10473;42.734;24.258;2022-11-24T15:05:18;91212.09;;;6.20;69.52
20628;BME280;10473;42.734;24.258;2022-11-24T15:07:49;91216.50;;;6.12;69.08
20628;BME280;10473;42.734;24.258;2022-11-24T15:10:21;91221.50;;;6.21;70.83
20628;BME280;10473;42.734;24.258;2022-11-24T15:12:52;91211.97;;;6.13;70.58
20628;BME280;10473;42.734;24.258;2022-11-24T15:15:24;91219.97;;;6.20;70.05
20628;BME280;10473;42.734;24.258;2022-11-24T15:17:55;91232.34;;;6.19;69.87
20628;BME280;10473;42.734;24.258;2022-11-24T15:20:26;91221.88;;;6.23;69.81
20628;BME280;10473;42.734;24.258;2022-11-24T15:23:20;91227.88;;;6.20;68.65
20628;BME280;10473;42.734;24.258;2022-11-24T15:25:49;91224.50;;;6.23;69.51
20628;BME280;10473;42.734;24.258;2022-11-24T15:28:18;91225.53;;;6.15;69.06
20628;BME280;10473;42.734;24.258;2022-11-24T15:30:51;91222.50;;;6.13;69.33
20628;BME280;10473;42.734;24.258;2022-11-24T15:33:21;91216.75;;;6.04;69.85
20628;BME280;10473;42.734;24.258;2022-11-24T15:35:49;91228.91;;;6.15;70.47
20628;BME280;10473;42.734;24.258;2022-11-24T15:38:18;91224.41;;;6.16;69.80
20628;BME280;10473;42.734;24.258;2022-11-24T15:40:47;91224.50;;;6.23;70.14
20628;BME280;10473;42.734;24.258;2022-11-24T15:43:26;91224.41;;;6.16;68.88
20628;BME280;10473;42.734;24.258;2022-11-24T15:45:55;91233.44;;;6.15;69.79
20628;BME280;10473;42.734;24.258;2022-11-24T15:48:23;91236.63;;;6.27;69.25
20628;BME280;10473;42.734;24.258;2022-11-24T15:50:51;91226.13;;;6.31;68.63
20628;BME280;10473;42.734;24.258;2022-11-24T15:53:22;91235.84;;;6.27;69.12
20628;BME280;10473;42.734;24.258;2022-11-24T15:55:51;91227.56;;;6.25;68.86
20628;BME280;10473;42.734;24.258;2022-11-24T15:58:19;91224.63;;;6.30;67.66
20628;BME280;10473;42.734;24.258;2022-11-24T16:00:46;91222.31;;;6.25;68.46
20628;BME280;10473;42.734;24.258;2022-11-24T16:03:15;91229.72;;;6.19;69.82
20628;BME280;10473;42.734;24.258;2022-11-24T16:05:43;91220.78;;;6.24;69.18
20628;BME280;10473;42.734;24.258;2022-11-24T16:08:13;91232.41;;;6.23;69.02
20628;BME280;10473;42.734;24.258;2022-11-24T16:10:43;91234.25;;;6.19;69.51
20628;BME280;10473;42.734;24.258;2022-11-24T16:13:11;91233.78;;;6.13;68.66
20628;BME280;10473;42.734;24.258;2022-11-24T16:15:39;91238.81;;;6.25;68.48
20628;BME280;10473;42.734;24.258;2022-11-24T16:18:06;91246.31;;;6.23;68.74
20628;BME280;10473;42.734;24.258;2022-11-24T16:20:34;91252.97;;;6.14;68.56
20628;BME280;10473;42.734;24.258;2022-11-24T16:23:02;91244.06;;;5.99;69.73
20628;BME280;10473;42.734;24.258;2022-11-24T16:25:30;91259.22;;;6.06;69.83
20628;BME280;10473;42.734;24.258;2022-11-24T16:27:59;91255.13;;;6.08;70.37
20628;BME280;10473;42.734;24.258;2022-11-24T16:30:27;91251.38;;;6.09;70.28
20628;BME280;10473;42.734;24.258;2022-11-24T16:32:55;91244.66;;;6.12;70.37
20628;BME280;10473;42.734;24.258;2022-11-24T16:35:23;91252.34;;;6.24;70.60
20628;BME280;10473;42.734;24.258;2022-11-24T16:37:50;91250.81;;;6.23;69.68
20628;BME280;10473;42.734;24.258;2022-11-24T16:40:18;91244.47;;;6.24;69.62
20628;BME280;10473;42.734;24.258;2022-11-24T16:42:46;91234.63;;;6.21;69.08
20628;BME280;10473;42.734;24.258;2022-11-24T16:45:15;91248.38;;;6.11;68.79
20628;BME280;10473;42.734;24.258;2022-11-24T16:47:43;91258.22;;;6.14;68.52
20628;BME280;10473;42.734;24.258;2022-11-24T16:50:11;91260.09;;;5.91;68.22
20628;BME280;10473;42.734;24.258;2022-11-24T16:52:39;91256.66;;;5.87;69.75
20628;BME280;10473;42.734;24.258;2022-11-24T16:55:07;91251.38;;;5.87;69.58
20628;BME280;10473;42.734;24.258;2022-11-24T16:57:38;91248.03;;;5.86;68.95
20628;BME280;10473;42.734;24.258;2022-11-24T17:00:08;91250.28;;;5.88;69.34
20628;BME280;10473;42.734;24.258;2022-11-24T17:02:37;91250.72;;;5.71;69.79
20628;BME280;10473;42.734;24.258;2022-11-24T17:05:06;91247.75;;;5.50;69.45
20628;BME280;10473;42.734;24.258;2022-11-24T17:07:34;91247.47;;;5.55;69.48
20628;BME280;10473;42.734;24.258;2022-11-24T17:10:02;91250.50;;;5.57;69.23
20628;BME280;10473;42.734;24.258;2022-11-24T17:12:30;91245.13;;;5.50;69.85
20628;BME280;10473;42.734;24.258;2022-11-24T17:14:58;91241.72;;;5.27;70.72
20628;BME280;10473;42.734;24.258;2022-11-24T17:17:26;91249.31;;;5.32;71.34
20628;BME280;10473;42.734;24.258;2022-11-24T17:19:55;91262.84;;;5.34;72.01
20628;BME280;10473;42.734;24.258;2022-11-24T17:22:23;91262.03;;;5.30;71.21
20628;BME280;10473;42.734;24.258;2022-11-24T17:24:50;91268.09;;;5.34;71.70
20628;BME280;10473;42.734;24.258;2022-11-24T17:27:18;91277.06;;;5.33;71.94
20628;BME280;10473;42.734;24.258;2022-11-24T17:29:46;91277.41;;;5.31;72.26
20628;BME280;10473;42.734;24.258;2022-11-24T17:32:15;91280.88;;;5.35;72.39
20628;BME280;10473;42.734;24.258;2022-11-24T17:34:42;91284.13;;;5.29;72.92
20628;BME280;10473;42.734;24.258;2022-11-24T17:37:12;91275.44;;;5.25;72.63
20628;BME280;10473;42.734;24.258;2022-11-24T17:39:39;91287.28;;;5.38;71.45
20628;BME280;10473;42.734;24.258;2022-11-24T17:42:07;91277.69;;;5.45;72.73
20628;BME280;10473;42.734;24.258;2022-11-24T17:44:35;91289.03;;;5.30;73.21